Time;durP1;ratioP1;P1;durP2;ratioP2;P2;SDS_P1;SDS_P2;PMS_P1;PMS_P2;Temp;Humidity;BMP_temperature;BMP_pressure;BME280_temperature;BME280_humidity;BME280_pressure;Samples;Min_cycle;Max_cycle;Signal;HPM_P1;HPM_P2
2023/01/07 00:01:36;;;;;;;28.07;25.23;;;7.40;99.90;;;;;;6015001;23;20432;-77
2023/01/07 00:04:06;;;;;;;29.43;26.10;;;7.50;99.90;;;;;;6049686;23;20408;-76
2023/01/07 00:06:36;;;;;;;27.90;24.97;;;7.50;99.90;;;;;;6050500;23;20802;-77
2023/01/07 00:09:06;;;;;;;31.17;27.97;;;7.50;99.90;;;;;;6039946;23;20443;-76
2023/01/07 00:11:36;;;;;;;29.00;25.83;;;7.60;99.90;;;;;;6049541;23;20437;-76
2023/01/07 00:14:05;;;;;;;32.03;26.33;;;7.60;99.90;;;;;;6039998;23;20937;-76
2023/01/07 00:16:36;;;;;;;29.93;26.10;;;7.60;99.90;;;;;;6014768;23;20471;-77
2023/01/07 00:19:06;;;;;;;30.30;27.00;;;7.70;99.90;;;;;;6014780;23;20420;-77
2023/01/07 00:21:34;;;;;;;31.33;27.93;;;7.70;99.90;;;;;;6014861;23;20428;-77
2023/01/07 00:24:04;;;;;;;29.20;25.80;;;7.70;99.90;;;;;;6049529;23;20411;-77
2023/01/07 00:26:34;;;;;;;31.03;27.63;;;7.70;99.90;;;;;;6014671;23;20948;-76
2023/01/07 00:29:04;;;;;;;32.20;28.27;;;7.80;99.90;;;;;;6015155;23;20457;-76
2023/01/07 00:31:35;;;;;;;32.33;28.60;;;7.80;99.90;;;;;;6014675;23;20494;-77
2023/01/07 00:34:07;;;;;;;32.10;27.97;;;7.80;99.90;;;;;;6014709;23;20450;-77
2023/01/07 00:36:39;;;;;;;32.00;28.47;;;7.80;99.90;;;;;;6014903;23;20452;-77
2023/01/07 00:39:10;;;;;;;33.70;30.17;;;7.90;99.90;;;;;;6049567;23;20514;-76
2023/01/07 00:41:38;;;;;;;33.53;28.17;;;7.90;99.90;;;;;;6014909;23;20421;-76
2023/01/07 00:44:07;;;;;;;33.70;30.03;;;7.90;99.90;;;;;;6049300;23;20407;-76
2023/01/07 00:46:37;;;;;;;34.63;30.93;;;8.00;99.90;;;;;;6049422;23;20757;-76
2023/01/07 00:49:05;;;;;;;34.40;30.70;;;8.00;99.90;;;;;;6021033;23;20427;-77
2023/01/07 00:51:33;;;;;;;34.90;31.10;;;8.00;99.90;;;;;;6038190;23;20443;-76
2023/01/07 00:54:01;;;;;;;37.47;31.77;;;8.00;99.90;;;;;;6037971;23;20419;-76
2023/01/07 00:56:32;;;;;;;34.87;31.07;;;8.10;99.90;;;;;;6038062;23;20446;-76
2023/01/07 00:59:00;;;;;;;35.30;30.90;;;8.10;99.90;;;;;;6038266;23;20422;-77
2023/01/07 01:01:28;;;;;;;35.63;31.30;;;8.10;99.90;;;;;;6038176;23;20833;-77
2023/01/07 01:03:58;;;;;;;37.53;32.90;;;8.20;99.90;;;;;;6038204;23;20420;-77
2023/01/07 01:06:26;;;;;;;37.83;33.77;;;8.20;99.90;;;;;;6038437;23;20442;-77
2023/01/07 01:08:54;;;;;;;39.40;34.00;;;8.30;99.90;;;;;;6049900;23;20412;-76
2023/01/07 01:11:22;;;;;;;38.40;34.30;;;8.30;99.90;;;;;;6037894;23;20821;-76
2023/01/07 01:13:52;;;;;;;37.40;33.23;;;8.40;99.90;;;;;;6038149;23;20471;-77
2023/01/07 01:16:20;;;;;;;39.90;35.10;;;8.40;99.90;;;;;;6038135;23;20454;-76
2023/01/07 01:18:49;;;;;;;38.57;34.27;;;8.40;99.90;;;;;;6038123;23;20442;-76
2023/01/07 01:21:18;;;;;;;40.40;35.80;;;8.50;99.90;;;;;;6038088;23;20763;-76
2023/01/07 01:23:47;;;;;;;40.67;36.47;;;8.60;99.90;;;;;;6038139;23;20759;-76
2023/01/07 01:26:17;;;;;;;40.33;35.93;;;8.60;99.90;;;;;;6038056;23;20444;-77
2023/01/07 01:28:46;;;;;;;38.57;34.47;;;8.60;99.90;;;;;;6038134;23;20419;-76
2023/01/07 01:31:19;;;;;;;40.37;35.17;;;8.60;99.90;;;;;;6038187;23;20808;-76
2023/01/07 01:33:53;;;;;;;41.00;36.30;;;8.70;99.90;;;;;;6049499;23;20383;-77
2023/01/07 01:36:24;;;;;;;42.10;35.67;;;8.80;99.90;;;;;;6038533;23;20443;-77
2023/01/07 01:38:56;;;;;;;44.20;38.10;;;8.80;99.90;;;;;;6038115;23;20420;-75
2023/01/07 01:41:25;;;;;;;39.87;35.57;;;8.80;99.90;;;;;;6038382;23;20416;-77
2023/01/07 01:43:55;;;;;;;32.27;27.00;;;8.90;99.90;;;;;;6039207;23;20466;-77
2023/01/07 01:46:33;;;;;;;40.57;36.00;;;8.90;99.90;;;;;;6039456;23;20443;-76
2023/01/07 01:49:06;;;;;;;39.87;35.50;;;8.90;99.90;;;;;;6040159;23;20923;-77
2023/01/07 01:51:41;;;;;;;43.23;38.57;;;9.00;99.90;;;;;;6015133;23;20899;-77
2023/01/07 01:54:13;;;;;;;40.30;36.00;;;9.00;99.90;;;;;;6014692;23;20788;-77
2023/01/07 01:56:51;;;;;;;44.53;37.87;;;9.00;99.90;;;;;;6014302;23;20443;-76
2023/01/07 01:59:23;;;;;;;41.77;35.53;;;9.00;99.90;;;;;;6014324;23;20439;-76
2023/01/07 02:01:53;;;;;;;41.37;36.87;;;9.10;99.90;;;;;;6014243;23;20416;-77
2023/01/07 02:04:24;;;;;;;42.10;36.90;;;9.10;99.90;;;;;;6014131;23;20420;-77
2023/01/07 02:06:59;;;;;;;43.03;36.83;;;9.10;99.90;;;;;;6015648;23;20451;-76
2023/01/07 02:09:29;;;;;;;44.33;39.57;;;9.20;99.90;;;;;;6016021;23;20419;-77
2023/01/07 02:12:04;;;;;;;43.83;38.97;;;9.20;99.90;;;;;;6015901;23;20444;-77
2023/01/07 02:14:53;;;;;;;43.13;38.50;;;9.20;99.90;;;;;;6015850;23;20750;-76
2023/01/07 02:17:31;;;;;;;43.57;38.87;;;9.20;99.90;;;;;;6050961;23;20424;-76
2023/01/07 02:20:15;;;;;;;47.73;40.83;;;9.20;99.90;;;;;;6015902;23;20451;-76
2023/01/07 02:23:07;;;;;;;43.33;38.73;;;9.30;99.90;;;;;;6017186;23;20855;-77
2023/01/07 02:26:03;;;;;;;44.60;38.80;;;9.30;99.90;;;;;;6038147;23;21030;-77
2023/01/07 02:28:49;;;;;;;44.23;39.47;;;9.30;99.90;;;;;;6015974;23;20408;-76
2023/01/07 02:31:31;;;;;;;46.53;40.13;;;9.30;99.90;;;;;;6015862;23;20456;-76
2023/01/07 02:34:10;;;;;;;42.87;38.10;;;9.40;99.90;;;;;;6015689;23;20439;-76
2023/01/07 02:36:50;;;;;;;46.00;38.80;;;9.40;99.90;;;;;;6015624;23;20440;-76
2023/01/07 02:39:38;;;;;;;43.33;38.50;;;9.40;99.90;;;;;;6015727;23;20734;-76
2023/01/07 02:42:13;;;;;;;44.07;38.60;;;9.50;99.90;;;;;;6015683;23;20499;-76
2023/01/07 02:44:50;;;;;;;42.30;37.70;;;9.40;99.90;;;;;;6015760;23;20419;-76
2023/01/07 02:47:27;;;;;;;42.23;37.63;;;9.50;99.90;;;;;;6015489;23;20450;-76
2023/01/07 02:49:59;;;;;;;40.90;36.47;;;8.40;99.90;;;;;;6032578;23;20522;-76
2023/01/07 02:52:31;;;;;;;41.37;36.20;;;9.50;99.90;;;;;;6040040;23;20516;-76
2023/01/07 02:55:04;;;;;;;41.17;35.80;;;9.50;99.90;;;;;;6051931;23;20395;-76
2023/01/07 02:57:59;;;;;;;42.10;37.57;;;9.50;99.90;;;;;;6040356;23;20507;-76
2023/01/07 03:00:48;;;;;;;42.40;37.80;;;9.50;99.90;;;;;;6028563;23;20471;-76
2023/01/07 03:03:48;;;;;;;40.40;35.87;;;9.80;99.90;;;;;;6039623;23;20928;-76
2023/01/07 03:06:30;;;;;;;39.87;35.67;;;9.60;99.90;;;;;;6039498;23;20436;-76
2023/01/07 03:09:06;;;;;;;40.67;36.23;;;9.60;99.90;;;;;;6039265;23;20854;-76
2023/01/07 03:11:45;;;;;;;41.53;36.70;;;9.60;99.90;;;;;;6039173;23;20442;-76
2023/01/07 03:14:19;;;;;;;37.23;33.40;;;9.60;99.90;;;;;;6039348;23;20440;-76
2023/01/07 03:16:55;;;;;;;38.50;34.30;;;9.70;99.90;;;;;;6050086;23;20483;-76
2023/01/07 03:19:28;;;;;;;38.67;34.53;;;9.70;99.90;;;;;;6042047;23;20422;-76
2023/01/07 03:21:59;;;;;;;39.13;34.93;;;9.70;99.90;;;;;;6040465;23;20788;-76
2023/01/07 03:24:28;;;;;;;39.53;35.53;;;9.80;99.90;;;;;;6041819;23;20468;-76
2023/01/07 03:27:00;;;;;;;39.00;34.97;;;9.80;99.90;;;;;;6041996;23;20832;-76
2023/01/07 03:29:31;;;;;;;38.23;34.13;;;9.80;99.90;;;;;;6041248;23;20460;-76
2023/01/07 03:32:07;;;;;;;39.10;35.10;;;9.80;99.90;;;;;;6039414;23;20416;-76
2023/01/07 03:34:37;;;;;;;38.00;34.00;;;9.80;99.90;;;;;;6038993;23;20438;-76
2023/01/07 03:37:10;;;;;;;38.10;34.00;;;9.80;99.90;;;;;;6038998;23;20824;-76
2023/01/07 03:39:41;;;;;;;36.83;33.13;;;9.90;99.90;;;;;;6050690;23;20389;-76
2023/01/07 03:45:20;;;;;;;37.07;33.17;;;9.90;99.90;;;;;;5953585;24;20427;-76
2023/01/07 03:47:51;;;;;;;37.87;33.97;;;10.00;99.90;;;;;;6026405;23;20487;-76
2023/01/07 03:50:20;;;;;;;37.90;34.00;;;10.00;99.90;;;;;;6039015;23;20435;-76
2023/01/07 03:52:51;;;;;;;36.83;32.87;;;10.00;99.90;;;;;;6050298;23;20487;-76
2023/01/07 03:55:21;;;;;;;36.03;32.23;;;10.00;99.90;;;;;;6038786;23;20440;-76
2023/01/07 03:57:53;;;;;;;36.67;32.87;;;10.00;99.90;;;;;;6038947;23;20412;-76
2023/01/07 04:00:24;;;;;;;35.67;32.07;;;10.00;99.90;;;;;;6038879;23;20503;-76
2023/01/07 04:03:03;;;;;;;36.73;33.13;;;10.00;99.90;;;;;;6038744;23;20418;-76
2023/01/07 04:05:36;;;;;;;34.77;31.17;;;10.10;99.90;;;;;;6038881;23;20442;-76
2023/01/07 04:08:06;;;;;;;36.40;32.80;;;10.10;99.90;;;;;;6039386;23;20622;-76
2023/01/07 04:10:37;;;;;;;37.27;33.37;;;10.10;99.90;;;;;;6038591;23;20412;-76
2023/01/07 04:13:05;;;;;;;38.37;34.47;;;10.10;99.90;;;;;;6038634;23;20503;-76
2023/01/07 04:15:35;;;;;;;35.63;31.97;;;10.20;99.90;;;;;;6038530;23;20440;-76
2023/01/07 04:18:03;;;;;;;37.60;33.80;;;10.20;99.90;;;;;;6038930;23;20427;-76
2023/01/07 04:20:32;;;;;;;37.40;33.60;;;10.20;99.90;;;;;;6049793;23;20719;-76
2023/01/07 04:23:00;;;;;;;36.17;32.37;;;10.20;99.90;;;;;;6038675;23;20480;-76
2023/01/07 04:25:32;;;;;;;36.07;32.57;;;10.20;99.90;;;;;;6038664;23;20951;-76
2023/01/07 04:28:04;;;;;;;34.87;31.47;;;10.20;99.90;;;;;;6038881;23;20424;-76
2023/01/07 04:30:33;;;;;;;35.07;31.50;;;10.20;99.90;;;;;;6038673;23;20447;-76
2023/01/07 04:33:01;;;;;;;36.40;32.50;;;10.20;99.90;;;;;;6050271;23;20409;-76
2023/01/07 04:35:30;;;;;;;37.67;33.77;;;10.30;99.90;;;;;;6038754;23;21007;-76
2023/01/07 04:37:58;;;;;;;37.40;33.53;;;10.20;99.90;;;;;;6039116;23;20765;-76
2023/01/07 04:40:27;;;;;;;36.90;33.00;;;10.20;99.90;;;;;;6049914;23;20425;-76
2023/01/07 04:42:57;;;;;;;37.60;33.87;;;10.30;99.90;;;;;;6038968;23;20420;-76
2023/01/07 04:45:25;;;;;;;37.23;33.43;;;10.30;99.90;;;;;;6038805;23;20482;-76
2023/01/07 04:47:55;;;;;;;38.50;34.53;;;10.30;99.90;;;;;;6038436;23;20450;-76
2023/01/07 04:50:24;;;;;;;37.77;33.97;;;10.30;99.90;;;;;;6038566;23;20526;-76
2023/01/07 04:52:53;;;;;;;38.23;34.17;;;10.30;99.90;;;;;;6049772;23;20764;-76
2023/01/07 04:55:22;;;;;;;39.33;35.07;;;10.30;99.90;;;;;;6049914;23;20480;-76
2023/01/07 04:57:51;;;;;;;37.30;33.50;;;10.30;99.90;;;;;;6038625;23;20511;-76
2023/01/07 05:00:20;;;;;;;36.83;33.13;;;10.30;99.90;;;;;;6038470;23;20735;-76
2023/01/07 05:02:50;;;;;;;38.43;34.53;;;10.30;99.90;;;;;;6038450;23;20503;-76
2023/01/07 05:05:18;;;;;;;37.93;33.97;;;10.30;99.90;;;;;;6038357;23;20412;-76
2023/01/07 05:07:47;;;;;;;37.83;34.10;;;10.30;99.90;;;;;;6038311;23;20420;-76
2023/01/07 05:10:18;;;;;;;38.83;34.90;;;10.40;99.90;;;;;;6038522;23;20420;-76
2023/01/07 05:12:46;;;;;;;38.20;34.50;;;10.40;99.90;;;;;;6038642;23;20428;-76
2023/01/07 05:15:17;;;;;;;37.50;33.67;;;10.40;99.90;;;;;;6039727;23;20466;-76
2023/01/07 05:17:47;;;;;;;36.53;32.90;;;10.40;99.90;;;;;;6039223;23;20566;-76
2023/01/07 05:20:16;;;;;;;38.27;34.53;;;10.40;99.90;;;;;;6038677;23;20412;-76
2023/01/07 05:22:45;;;;;;;39.73;35.67;;;10.40;99.90;;;;;;6049763;23;20780;-76
2023/01/07 05:25:13;;;;;;;37.33;33.63;;;10.40;99.90;;;;;;6038709;23;20495;-76
2023/01/07 05:27:41;;;;;;;39.90;36.00;;;10.40;99.90;;;;;;6038266;23;20511;-76
2023/01/07 05:30:11;;;;;;;38.40;34.50;;;10.40;99.90;;;;;;6038277;23;20432;-76
2023/01/07 05:32:39;;;;;;;38.73;34.93;;;10.40;99.90;;;;;;6038382;23;20420;-76
2023/01/07 05:35:10;;;;;;;35.93;32.27;;;10.40;99.90;;;;;;6038157;23;20951;-76
2023/01/07 05:37:38;;;;;;;39.10;35.20;;;10.40;99.90;;;;;;6038178;23;20420;-76
2023/01/07 05:40:09;;;;;;;38.60;34.80;;;10.50;99.90;;;;;;6038356;23;20427;-76
2023/01/07 05:42:38;;;;;;;36.83;33.43;;;10.40;99.90;;;;;;6040071;23;20445;-76
2023/01/07 05:45:08;;;;;;;39.47;35.60;;;10.40;99.90;;;;;;6040135;23;20448;-76
2023/01/07 05:47:36;;;;;;;37.17;33.60;;;10.50;99.90;;;;;;6041908;23;20416;-76
2023/01/07 05:50:05;;;;;;;37.37;33.70;;;10.50;99.90;;;;;;6050889;23;20427;-76
2023/01/07 05:52:34;;;;;;;37.20;33.60;;;10.50;99.90;;;;;;6016154;23;20462;-76
2023/01/07 05:55:03;;;;;;;38.70;34.97;;;10.50;99.90;;;;;;6050913;23;20431;-76
2023/01/07 05:57:31;;;;;;;35.77;32.47;;;10.50;99.90;;;;;;6051448;23;20427;-75
2023/01/07 05:59:59;;;;;;;36.83;33.13;;;10.50;99.90;;;;;;6016206;23;20463;-76
2023/01/07 06:02:27;;;;;;;36.57;33.07;;;10.50;99.90;;;;;;6051097;23;20408;-76
2023/01/07 06:04:55;;;;;;;35.53;32.23;;;10.50;99.90;;;;;;6041865;23;20519;-76
2023/01/07 06:07:24;;;;;;;38.10;34.47;;;10.50;99.90;;;;;;6041823;23;20423;-75
2023/01/07 06:09:54;;;;;;;35.70;32.20;;;10.50;99.90;;;;;;6016134;23;20842;-76
2023/01/07 06:12:22;;;;;;;35.40;31.83;;;10.50;99.90;;;;;;6016343;23;20479;-76
2023/01/07 06:14:50;;;;;;;38.33;34.73;;;10.50;99.90;;;;;;6015978;23;20527;-75
2023/01/07 06:17:18;;;;;;;35.40;32.00;;;10.60;99.90;;;;;;6050843;23;20420;-75
2023/01/07 06:19:46;;;;;;;36.10;32.70;;;10.60;99.90;;;;;;6015973;23;20760;-76
2023/01/07 06:22:15;;;;;;;34.40;31.20;;;10.60;99.90;;;;;;6050883;23;20404;-76
2023/01/07 06:24:43;;;;;;;35.93;32.43;;;10.60;99.90;;;;;;6050860;23;20869;-76
2023/01/07 06:27:13;;;;;;;34.63;31.20;;;10.60;99.90;;;;;;6015990;23;21043;-76
2023/01/07 06:29:41;;;;;;;34.33;31.17;;;10.50;99.90;;;;;;6050437;23;20438;-76
2023/01/07 06:32:09;;;;;;;36.20;32.70;;;10.60;99.90;;;;;;6050435;23;20400;-76
2023/01/07 06:34:37;;;;;;;34.30;31.20;;;10.60;99.90;;;;;;6015606;23;20994;-76
2023/01/07 06:37:05;;;;;;;33.47;30.40;;;10.60;99.90;;;;;;6050412;23;20424;-76
2023/01/07 06:39:33;;;;;;;36.10;32.73;;;10.60;99.90;;;;;;6050840;23;20491;-76
2023/01/07 06:42:02;;;;;;;34.47;31.17;;;10.60;99.90;;;;;;6015743;23;20451;-76
2023/01/07 06:44:31;;;;;;;33.73;30.57;;;10.60;99.90;;;;;;6018088;23;20444;-76
2023/01/07 06:46:59;;;;;;;33.77;30.47;;;10.60;99.90;;;;;;6016341;23;20443;-76
2023/01/07 06:49:28;;;;;;;33.87;30.57;;;10.60;99.90;;;;;;6026720;23;20432;-76
2023/01/07 06:51:56;;;;;;;33.33;30.10;;;10.60;99.90;;;;;;6050336;23;20884;-76
2023/01/07 06:54:24;;;;;;;32.70;29.60;;;10.60;99.90;;;;;;6039251;23;20463;-76
2023/01/07 06:56:52;;;;;;;32.10;28.90;;;10.60;99.90;;;;;;6050475;23;20452;-76
2023/01/07 06:59:20;;;;;;;31.57;28.40;;;10.60;99.90;;;;;;6050789;23;20404;-76
2023/01/07 07:01:50;;;;;;;32.80;29.90;;;10.60;99.90;;;;;;6039381;23;20896;-76
2023/01/07 07:04:18;;;;;;;33.10;29.97;;;10.60;99.90;;;;;;6050439;23;20405;-76
2023/01/07 07:06:46;;;;;;;31.53;28.63;;;10.60;99.90;;;;;;6039406;23;20444;-76
2023/01/07 07:09:14;;;;;;;30.27;27.47;;;10.60;99.90;;;;;;6050256;23;20408;-76
2023/01/07 07:11:43;;;;;;;27.70;24.87;;;10.60;99.90;;;;;;6050974;23;20405;-76
2023/01/07 07:14:11;;;;;;;29.20;26.40;;;10.60;99.90;;;;;;6038940;23;20428;-76
2023/01/07 07:16:39;;;;;;;32.80;29.63;;;10.60;99.90;;;;;;6039332;23;20440;-76
2023/01/07 07:19:09;;;;;;;29.97;27.00;;;10.60;99.90;;;;;;6040680;23;21006;-75
2023/01/07 07:21:37;;;;;;;28.73;25.93;;;10.60;99.90;;;;;;6050169;23;20402;-75
2023/01/07 07:24:05;;;;;;;29.60;26.67;;;10.60;99.90;;;;;;6039534;23;20420;-76
2023/01/07 07:26:34;;;;;;;25.27;23.00;;;10.60;99.90;;;;;;6039127;23;20943;-75
2023/01/07 07:29:02;;;;;;;29.27;26.37;;;10.60;99.90;;;;;;6039044;23;20412;-76
2023/01/07 07:31:30;;;;;;;28.47;25.87;;;10.50;99.90;;;;;;6039037;23;20420;-76
2023/01/07 07:33:58;;;;;;;29.87;27.17;;;10.60;99.90;;;;;;6039005;23;20420;-76
2023/01/07 07:36:28;;;;;;;29.10;26.20;;;10.50;99.90;;;;;;6049754;23;20939;-76
2023/01/07 07:38:56;;;;;;;32.10;28.87;;;10.50;99.90;;;;;;6038918;23;20431;-75
2023/01/07 07:41:24;;;;;;;27.90;25.23;;;10.50;99.90;;;;;;6038878;23;20428;-76
2023/01/07 07:43:52;;;;;;;31.77;28.70;;;10.50;99.90;;;;;;6050330;23;20496;-76
2023/01/07 07:46:20;;;;;;;28.67;25.77;;;10.50;99.90;;;;;;6038615;23;20473;-76
2023/01/07 07:48:49;;;;;;;27.67;25.07;;;10.50;99.90;;;;;;6045979;23;20420;-76
2023/01/07 07:51:18;;;;;;;27.80;25.10;;;10.50;99.90;;;;;;6015203;23;20424;-76
2023/01/07 07:53:47;;;;;;;29.43;26.33;;;10.50;99.90;;;;;;6049975;23;20404;-76
2023/01/07 07:56:15;;;;;;;27.53;24.93;;;10.50;99.90;;;;;;6049596;23;20440;-76
2023/01/07 07:58:44;;;;;;;28.13;25.43;;;10.50;99.90;;;;;;6040140;23;20412;-77
2023/01/07 08:01:12;;;;;;;26.03;23.63;;;10.50;99.90;;;;;;6050025;23;20405;-76
2023/01/07 08:03:40;;;;;;;26.20;23.70;;;10.50;99.90;;;;;;6015005;23;20430;-76
2023/01/07 08:06:09;;;;;;;23.07;20.97;;;10.40;99.90;;;;;;6040411;23;20451;-76
2023/01/07 08:08:37;;;;;;;24.37;21.97;;;10.50;99.90;;;;;;6014978;23;20480;-76
2023/01/07 08:11:07;;;;;;;25.30;23.00;;;10.40;99.90;;;;;;6015075;23;20427;-76
2023/01/07 08:13:35;;;;;;;25.00;22.50;;;10.40;99.90;;;;;;6014965;23;20416;-76
2023/01/07 08:16:04;;;;;;;26.00;23.40;;;10.40;99.90;;;;;;6040112;23;20526;-76
2023/01/07 08:18:32;;;;;;;23.37;21.07;;;10.40;99.90;;;;;;6049605;23;20411;-76
2023/01/07 08:21:00;;;;;;;22.87;20.73;;;10.40;99.90;;;;;;6014899;23;20774;-76
2023/01/07 08:23:30;;;;;;;23.87;21.67;;;10.40;99.90;;;;;;6049609;23;20452;-76
2023/01/07 08:25:59;;;;;;;22.97;20.67;;;10.40;99.90;;;;;;6049866;23;20427;-76
2023/01/07 08:28:29;;;;;;;22.60;20.50;;;10.50;99.90;;;;;;6014855;23;20420;-76
2023/01/07 08:31:00;;;;;;;20.77;18.77;;;10.50;99.90;;;;;;6049478;23;20411;-76
2023/01/07 08:33:28;;;;;;;21.90;19.80;;;10.50;99.90;;;;;;6049489;23;20384;-76
2023/01/07 08:35:57;;;;;;;21.43;18.87;;;10.50;99.90;;;;;;6014637;23;20456;-76
2023/01/07 08:38:27;;;;;;;20.97;18.20;;;10.50;99.90;;;;;;6014628;23;20420;-76
2023/01/07 08:40:55;;;;;;;20.37;18.20;;;10.50;99.90;;;;;;6049445;23;20751;-76
2023/01/07 08:43:24;;;;;;;18.80;17.00;;;10.50;99.90;;;;;;6014936;23;20419;-76
2023/01/07 08:45:53;;;;;;;19.13;17.37;;;10.50;99.90;;;;;;6014707;23;20955;-76
2023/01/07 08:48:22;;;;;;;17.17;15.57;;;10.50;99.90;;;;;;6014500;23;20424;-76
2023/01/07 08:50:52;;;;;;;16.57;15.07;;;10.50;99.90;;;;;;6015211;23;20420;-76
2023/01/07 08:53:21;;;;;;;16.37;14.87;;;10.50;99.90;;;;;;6049918;23;20435;-76
2023/01/07 08:55:49;;;;;;;14.70;13.10;;;10.50;99.90;;;;;;6014578;23;20492;-76
2023/01/07 08:58:17;;;;;;;20.27;18.17;;;10.50;99.90;;;;;;6049464;23;20400;-76
2023/01/07 09:00:46;;;;;;;15.20;13.80;;;10.40;99.90;;;;;;6014969;23;20426;-76
2023/01/07 09:03:15;;;;;;;14.00;12.80;;;10.40;99.90;;;;;;6014654;23;20424;-76
2023/01/07 09:05:43;;;;;;;13.03;11.83;;;10.40;99.90;;;;;;6049148;23;20420;-76
2023/01/07 09:08:11;;;;;;;12.80;11.60;;;10.40;99.90;;;;;;6049726;23;20407;-76
2023/01/07 09:10:40;;;;;;;11.33;10.33;;;10.40;99.90;;;;;;6014616;23;20416;-76
2023/01/07 09:13:08;;;;;;;11.00;10.00;;;10.40;99.90;;;;;;6040093;23;20458;-76
2023/01/07 09:15:36;;;;;;;11.03;9.93;;;10.40;99.90;;;;;;6014994;23;20448;-76
2023/01/07 09:18:05;;;;;;;9.70;8.80;;;10.40;99.90;;;;;;6016916;23;20430;-76
2023/01/07 09:20:35;;;;;;;10.53;9.47;;;10.40;99.90;;;;;;6051372;23;20781;-76
2023/01/07 09:23:03;;;;;;;9.60;8.60;;;10.40;99.90;;;;;;6016401;23;20993;-76
2023/01/07 09:25:31;;;;;;;10.90;9.80;;;10.40;99.90;;;;;;6052750;23;20923;-75
2023/01/07 09:28:00;;;;;;;10.73;9.73;;;10.40;99.90;;;;;;6018167;23;20419;-76
2023/01/07 09:30:28;;;;;;;12.50;11.30;;;10.40;99.90;;;;;;6018014;23;20427;-76
2023/01/07 09:32:56;;;;;;;8.07;7.27;;;10.40;99.90;;;;;;6017662;23;20420;-76
2023/01/07 09:35:24;;;;;;;9.13;8.20;;;10.40;99.90;;;;;;6041501;23;20431;-76
2023/01/07 09:37:54;;;;;;;11.90;10.70;;;10.50;99.90;;;;;;6016329;23;20514;-76
2023/01/07 09:40:26;;;;;;;8.50;7.70;;;10.50;99.90;;;;;;6041394;23;20454;-76
2023/01/07 09:43:03;;;;;;;7.30;6.60;;;10.50;99.90;;;;;;6016437;23;20797;-76
2023/01/07 09:45:34;;;;;;;6.40;5.80;;;10.50;99.90;;;;;;6016388;23;20471;-76
2023/01/07 09:48:09;;;;;;;6.00;5.50;;;10.50;99.90;;;;;;6051681;23;20384;-76
2023/01/07 09:50:48;;;;;;;6.30;5.50;;;10.50;99.90;;;;;;6016390;23;20414;-76
2023/01/07 09:53:22;;;;;;;5.93;5.33;;;10.50;99.90;;;;;;6041845;23;20487;-76
2023/01/07 09:55:52;;;;;;;5.40;4.90;;;10.50;99.90;;;;;;6016213;23;20443;-76
2023/01/07 09:58:41;;;;;;;11.63;10.40;;;10.50;99.90;;;;;;6051210;23;20440;-76
2023/01/07 10:01:42;;;;;;;5.00;4.40;;;10.50;99.90;;;;;;6051442;23;20391;-76
2023/01/07 10:04:53;;;;;;;5.10;4.60;;;10.50;99.90;;;;;;6016450;23;20534;-76
2023/01/07 10:07:42;;;;;;;5.70;4.63;;;10.50;99.90;;;;;;6041406;23;20400;-76
2023/01/07 10:10:18;;;;;;;7.00;4.73;;;10.50;99.90;;;;;;6042383;23;20730;-76
2023/01/07 10:12:56;;;;;;;5.30;4.80;;;10.50;99.90;;;;;;6041602;23;20396;-76
2023/01/07 10:15:41;;;;;;;5.30;4.50;;;10.50;99.90;;;;;;6015882;23;21015;-77
2023/01/07 10:18:32;;;;;;;4.93;4.43;;;10.50;99.90;;;;;;6015986;23;20440;-77
2023/01/07 10:21:10;;;;;;;5.87;4.63;;;10.60;99.90;;;;;;6016395;23;20416;-76
2023/01/07 10:23:42;;;;;;;4.80;4.30;;;10.60;99.90;;;;;;6016160;23;20519;-76
2023/01/07 10:26:19;;;;;;;5.27;3.90;;;10.60;99.90;;;;;;6015962;23;20840;-76
2023/01/07 10:28:51;;;;;;;5.50;4.17;;;10.70;99.90;;;;;;6051073;23;20719;-77
2023/01/07 10:31:22;;;;;;;6.93;4.50;;;10.60;99.90;;;;;;6051532;23;20694;-76
2023/01/07 10:33:52;;;;;;;5.20;4.37;;;10.70;99.90;;;;;;6015854;23;20420;-76
2023/01/07 10:36:25;;;;;;;3.90;3.43;;;10.70;99.90;;;;;;6050434;23;20436;-77
2023/01/07 10:39:01;;;;;;;5.40;3.90;;;10.70;99.90;;;;;;6041440;23;20396;-77
2023/01/07 10:41:40;;;;;;;4.57;4.07;;;10.80;99.90;;;;;;6050534;23;20395;-77
2023/01/07 10:44:41;;;;;;;6.10;4.50;;;10.80;99.90;;;;;;6015827;23;20412;-77
2023/01/07 10:47:21;;;;;;;4.20;3.80;;;10.80;99.90;;;;;;6041148;23;20739;-75
2023/01/07 10:50:07;;;;;;;4.70;3.80;;;10.80;99.90;;;;;;6030986;23;20432;-77
2023/01/07 10:52:45;;;;;;;4.43;3.30;;;10.80;99.90;;;;;;6039427;23;20888;-76
2023/01/07 10:55:28;;;;;;;4.47;3.60;;;10.80;99.90;;;;;;6050352;23;20385;-77
2023/01/07 10:57:58;;;;;;;4.80;4.30;;;10.90;99.90;;;;;;6040801;23;20510;-76
2023/01/07 11:00:26;;;;;;;3.67;3.20;;;10.90;99.90;;;;;;6039278;23;20452;-76
2023/01/07 11:02:58;;;;;;;4.70;3.80;;;10.90;99.90;;;;;;6039299;23;20420;-77
2023/01/07 11:05:33;;;;;;;3.80;3.40;;;10.90;99.90;;;;;;6039207;23;20436;-76
2023/01/07 11:08:02;;;;;;;6.23;4.57;;;11.00;99.90;;;;;;6039324;23;20411;-77
2023/01/07 11:10:34;;;;;;;4.87;3.63;;;11.00;99.90;;;;;;6039134;23;20408;-77
2023/01/07 11:13:08;;;;;;;5.13;3.73;;;11.00;99.90;;;;;;6039221;23;20456;-76
2023/01/07 11:15:40;;;;;;;5.20;3.73;;;11.00;99.90;;;;;;6039449;23;20922;-77
2023/01/07 11:18:16;;;;;;;5.50;3.57;;;11.00;99.90;;;;;;6039087;23;20927;-77
2023/01/07 11:20:47;;;;;;;4.80;3.80;;;11.00;99.90;;;;;;6050530;23;20372;-76
2023/01/07 11:23:28;;;;;;;4.30;3.50;;;11.00;99.90;;;;;;6039238;23;20424;-77
2023/01/07 11:26:17;;;;;;;4.30;3.13;;;11.00;99.90;;;;;;6050670;23;20424;-76
2023/01/07 11:28:55;;;;;;;5.17;3.23;;;11.10;99.90;;;;;;6040529;23;20863;-77
2023/01/07 11:31:43;;;;;;;4.40;3.17;;;11.10;99.90;;;;;;6039140;23;20422;-77
2023/01/07 11:34:19;;;;;;;6.40;3.33;;;11.10;99.90;;;;;;6039216;23;20420;-76
2023/01/07 11:36:47;;;;;;;4.60;3.17;;;11.10;99.90;;;;;;6038688;23;20530;-77
2023/01/07 11:39:21;;;;;;;4.60;3.30;;;11.10;99.90;;;;;;6038913;23;20412;-76
2023/01/07 11:41:57;;;;;;;4.67;3.53;;;11.10;99.90;;;;;;6052320;23;20418;-76
2023/01/07 11:44:27;;;;;;;7.00;3.37;;;11.10;99.90;;;;;;6052209;23;20384;-76
2023/01/07 11:46:55;;;;;;;4.33;3.27;;;11.10;99.90;;;;;;6051497;23;20500;-76
2023/01/07 11:49:29;;;;;;;4.70;2.93;;;11.10;99.90;;;;;;6050626;23;20439;-77
2023/01/07 11:51:58;;;;;;;4.27;3.40;;;11.10;99.90;;;;;;6015486;23;20416;-76
2023/01/07 11:54:30;;;;;;;5.93;3.37;;;11.10;99.90;;;;;;6015304;23;20414;-76
2023/01/07 11:57:12;;;;;;;4.30;3.30;;;11.20;99.90;;;;;;6015864;23;20499;-76
2023/01/07 11:59:42;;;;;;;4.10;3.30;;;11.20;99.90;;;;;;6015275;23;20416;-76
2023/01/07 12:02:25;;;;;;;3.93;2.77;;;11.20;99.90;;;;;;6015064;23;20431;-76
2023/01/07 12:05:13;;;;;;;3.77;2.60;;;11.20;99.90;;;;;;6015094;23;20412;-76
2023/01/07 12:07:46;;;;;;;3.80;3.00;;;11.20;99.90;;;;;;6050948;23;20377;-76
2023/01/07 12:10:32;;;;;;;5.17;3.10;;;11.20;99.90;;;;;;6015353;23;20871;-77
2023/01/07 12:13:03;;;;;;;3.47;2.73;;;11.20;99.90;;;;;;6050198;23;20396;-75
2023/01/07 12:15:37;;;;;;;5.03;3.43;;;11.20;99.90;;;;;;6014980;23;20440;-75
2023/01/07 12:18:33;;;;;;;4.10;3.20;;;11.20;99.90;;;;;;6040737;23;20537;-75
2023/01/07 12:21:29;;;;;;;4.47;3.17;;;11.20;99.90;;;;;;6050306;23;20385;-75
2023/01/07 12:24:16;;;;;;;4.13;2.60;;;11.20;99.90;;;;;;6049670;23;20475;-77
2023/01/07 12:26:51;;;;;;;3.83;2.70;;;11.20;99.90;;;;;;6049732;23;20428;-76
2023/01/07 12:29:38;;;;;;;4.57;3.27;;;11.20;99.90;;;;;;6050581;23;20392;-76
2023/01/07 12:32:19;;;;;;;3.40;2.50;;;11.20;99.90;;;;;;6015005;23;20498;-77
2023/01/07 12:34:53;;;;;;;3.43;2.60;;;11.20;99.90;;;;;;6014973;23;20418;-77
2023/01/07 12:37:30;;;;;;;3.33;2.57;;;11.30;99.90;;;;;;6049338;23;20442;-76
2023/01/07 12:40:16;;;;;;;4.10;3.43;;;11.30;99.90;;;;;;6040386;23;20408;-76
2023/01/07 12:42:49;;;;;;;4.60;3.27;;;11.30;99.90;;;;;;6040065;23;20852;-76
2023/01/07 12:45:22;;;;;;;4.63;3.43;;;11.30;99.90;;;;;;6050767;23;20712;-76
2023/01/07 12:47:58;;;;;;;3.53;2.40;;;11.20;99.90;;;;;;6014819;23;20427;-76
2023/01/07 12:50:30;;;;;;;3.60;2.97;;;11.30;99.90;;;;;;6036762;23;20423;-77
2023/01/07 12:53:05;;;;;;;4.30;3.00;;;11.30;99.90;;;;;;6040442;23;20468;-76
2023/01/07 12:55:37;;;;;;;3.73;2.17;;;11.30;99.90;;;;;;6049478;23;20449;-77
2023/01/07 12:58:15;;;;;;;5.50;3.13;;;11.30;99.90;;;;;;6038276;23;20453;-76
2023/01/07 13:00:50;;;;;;;4.20;2.50;;;11.30;99.90;;;;;;6039852;23;20403;-77
2023/01/07 13:03:31;;;;;;;3.30;1.93;;;11.30;99.90;;;;;;6049664;23;20398;-76
2023/01/07 13:06:06;;;;;;;3.30;2.10;;;11.30;99.90;;;;;;6038397;23;20821;-77